KMKL/MKL METAR and TAF weather

Enter ICAO airport designator
Station Type Date Time Source
KMKL METAR 2021/09/24 02:53 UTC NOAA

KMKL 240253Z AUTO 19004KT 10SM CLR 12/11 A3009 RMK AO2 SLP189 T01170106 53010 $


Station Type Date Time Source
KMKL Decoded METAR 2021/09/24 02:53 UTC NOAA

JACKSON MCKELLAR-SIPES RGNL, TN, United States (KMKL) 35-36N 088-55W 128M
Sep 23, 2021 - 10:53 PM EDT / 2021.09.24 0253 UTC
Wind: from the S (190 degrees) at 5 MPH (4 KT):0
Visibility: 10 mile(s):0
Sky conditions: clear
Temperature: 53.1 F (11.7 C)
Dew Point: 51.1 F (10.6 C)
Relative Humidity: 92%
Pressure (altimeter): 30.09 in. Hg (1018 hPa)
Pressure tendency: 0.03 inches (1.0 hPa) higher than three hours ago
ob: KMKL 240253Z AUTO 19004KT 10SM CLR 12/11 A3009 RMK AO2 SLP189 T01170106 53010
cycle: 3

Station Type Date Time Source
KMKL TAF 2021/09/23 18:27 UTC NOAA

TAF KMKL 231724Z 2318/2418 32010KT P6SM FEW050
FM240100 00000KT P6SM SKC
FM240900 00000KT 4SM BR SKC
FM241500 22004KT P6SM SKC

Example: see airport list